Excel - unir dos filas de una misma columna cupliendo una condcion.

   
Vista:

unir dos filas de una misma columna cupliendo una condcion.

Publicado por JUAN CARLOS (1 intervención) el 18/05/2014 23:51:33
buenas tardes tengo una colimna con informacion que esta asi
METAR SKPE 010100Z VRB02KT 9000 MIFG FEW010 SCT080 19/17
A3012 RMK MIFG/W/SW=

METAR SKPE 010200Z VRB02KT 9999 FEW010 SCT080 20/18 A3014=

METAR SKPE 010300Z 11004KT 9999 FEW010 SCT080 20/18 A3016=

METAR SKPE 010400Z VRB02KT 9999 FEW010 SCT080 19/17 A3018=

METAR SKPE 010500Z VRB02KT 4000 TSRA BKN010CB SCT070 20/18
A3018 RMK CB/E AD OPER IMC=
quisiera saber como uno las oraciones desde la palabra METAR hasta el = ya que ese es un informe

gracias
Valora esta pregunta
Me gusta: Está pregunta es útil y esta claraNo me gusta: Está pregunta no esta clara o no es útil
0
Responder

unir dos filas de una misma columna cupliendo una condcion.

Publicado por Janlui (113 intervenciones) el 26/05/2014 04:56:08
Sube tu archivo y lo arreglamos.
Saludos.
Valora esta respuesta
Me gusta: Está respuesta es útil y esta claraNo me gusta: Está respuesta no esta clara o no es útil
0
Comentar